sensor_id;sensor_type;location;lat;lon;timestamp;pressure;altitude;pressure_sealevel;temperature;humidity
12868;BME280;33517;49.866;8.320;2023-07-31T00:00:19;100298.91;;;19.34;65.90
12868;BME280;33517;49.866;8.320;2023-07-31T00:03:11;100297.66;;;19.37;65.62
12868;BME280;33517;49.866;8.320;2023-07-31T00:06:04;100291.50;;;19.36;65.29
12868;BME280;33517;49.866;8.320;2023-07-31T00:08:56;100291.50;;;19.36;65.25
12868;BME280;33517;49.866;8.320;2023-07-31T00:11:48;100295.78;;;19.37;64.78
12868;BME280;33517;49.866;8.320;2023-07-31T00:14:39;100290.69;;;19.36;64.67
12868;BME280;33517;49.866;8.320;2023-07-31T00:17:31;100300.75;;;19.34;64.74
12868;BME280;33517;49.866;8.320;2023-07-31T00:20:23;100300.94;;;19.39;64.62
12868;BME280;33517;49.866;8.320;2023-07-31T00:23:16;100283.63;;;19.41;64.66
12868;BME280;33517;49.866;8.320;2023-07-31T00:26:08;100285.56;;;19.34;64.47
12868;BME280;33517;49.866;8.320;2023-07-31T00:29:00;100292.09;;;19.38;64.50
12868;BME280;33517;49.866;8.320;2023-07-31T00:31:52;100281.19;;;19.40;64.51
12868;BME280;33517;49.866;8.320;2023-07-31T00:34:44;100288.97;;;19.41;64.29
12868;BME280;33517;49.866;8.320;2023-07-31T00:37:35;100277.69;;;19.39;64.34
12868;BME280;33517;49.866;8.320;2023-07-31T00:40:29;100281.19;;;19.40;64.42
12868;BME280;33517;49.866;8.320;2023-07-31T00:43:20;100276.50;;;19.35;64.32
12868;BME280;33517;49.866;8.320;2023-07-31T00:46:13;100285.13;;;19.37;64.22
12868;BME280;33517;49.866;8.320;2023-07-31T00:49:05;100288.84;;;19.36;64.33
12868;BME280;33517;49.866;8.320;2023-07-31T00:51:58;100286.16;;;19.36;64.28
12868;BME280;33517;49.866;8.320;2023-07-31T00:54:51;100287.19;;;19.35;64.24
12868;BME280;33517;49.866;8.320;2023-07-31T00:57:45;100280.63;;;19.31;64.29
12868;BME280;33517;49.866;8.320;2023-07-31T01:00:37;100283.63;;;19.23;64.61
12868;BME280;33517;49.866;8.320;2023-07-31T01:03:28;100280.44;;;19.14;65.00
12868;BME280;33517;49.866;8.320;2023-07-31T01:06:27;100274.16;;;19.09;64.98
12868;BME280;33517;49.866;8.320;2023-07-31T01:09:29;100278.75;;;19.02;65.35
12868;BME280;33517;49.866;8.320;2023-07-31T01:12:27;100271.13;;;19.05;65.55
12868;BME280;33517;49.866;8.320;2023-07-31T01:15:21;100275.94;;;19.15;65.70
12868;BME280;33517;49.866;8.320;2023-07-31T01:18:13;100279.56;;;19.20;65.49
12868;BME280;33517;49.866;8.320;2023-07-31T01:21:17;100270.88;;;19.25;65.17
12868;BME280;33517;49.866;8.320;2023-07-31T01:24:21;100270.66;;;19.26;65.31
12868;BME280;33517;49.866;8.320;2023-07-31T01:27:17;100273.09;;;19.28;65.09
12868;BME280;33517;49.866;8.320;2023-07-31T01:30:15;100275.63;;;19.23;65.26
12868;BME280;33517;49.866;8.320;2023-07-31T01:33:08;100277.41;;;19.29;65.14
12868;BME280;33517;49.866;8.320;2023-07-31T01:36:01;100281.09;;;19.28;65.16
12868;BME280;33517;49.866;8.320;2023-07-31T01:38:57;100276.22;;;19.25;65.15
12868;BME280;33517;49.866;8.320;2023-07-31T01:41:49;100268.81;;;19.27;65.13
12868;BME280;33517;49.866;8.320;2023-07-31T01:44:43;100265.38;;;19.20;65.38
12868;BME280;33517;49.866;8.320;2023-07-31T01:47:35;100256.59;;;19.19;65.56
12868;BME280;33517;49.866;8.320;2023-07-31T01:50:27;100255.78;;;19.19;65.47
12868;BME280;33517;49.866;8.320;2023-07-31T01:53:18;100253.69;;;19.21;65.33
12868;BME280;33517;49.866;8.320;2023-07-31T01:56:10;100248.00;;;19.17;65.45
12868;BME280;33517;49.866;8.320;2023-07-31T01:59:02;100245.75;;;19.14;65.38
12868;BME280;33517;49.866;8.320;2023-07-31T02:01:55;100245.75;;;19.14;65.90
12868;BME280;33517;49.866;8.320;2023-07-31T02:04:47;100234.59;;;19.06;65.94
12868;BME280;33517;49.866;8.320;2023-07-31T02:07:39;100236.88;;;19.02;66.06
12868;BME280;33517;49.866;8.320;2023-07-31T02:10:31;100232.38;;;19.03;66.30
12868;BME280;33517;49.866;8.320;2023-07-31T02:13:23;100227.13;;;18.96;66.63
12868;BME280;33517;49.866;8.320;2023-07-31T02:16:14;100222.97;;;19.00;66.42
12868;BME280;33517;49.866;8.320;2023-07-31T02:19:08;100217.72;;;18.94;66.99
12868;BME280;33517;49.866;8.320;2023-07-31T02:21:59;100210.06;;;18.97;67.33
12868;BME280;33517;49.866;8.320;2023-07-31T02:24:51;100207.41;;;18.97;67.01
12868;BME280;33517;49.866;8.320;2023-07-31T02:27:43;100203.34;;;18.95;67.18
12868;BME280;33517;49.866;8.320;2023-07-31T02:30:35;100204.97;;;18.96;67.27
12868;BME280;33517;49.866;8.320;2023-07-31T02:33:27;100198.97;;;19.00;67.03
12868;BME280;33517;49.866;8.320;2023-07-31T02:36:20;100202.59;;;19.06;66.80
12868;BME280;33517;49.866;8.320;2023-07-31T02:39:12;100207.00;;;19.12;66.52
12868;BME280;33517;49.866;8.320;2023-07-31T02:42:04;100207.59;;;19.14;66.32
12868;BME280;33517;49.866;8.320;2023-07-31T02:44:56;100209.91;;;19.10;66.38
12868;BME280;33517;49.866;8.320;2023-07-31T02:47:48;100212.44;;;19.05;66.69
12868;BME280;33517;49.866;8.320;2023-07-31T02:50:39;100213.84;;;19.08;66.92
12868;BME280;33517;49.866;8.320;2023-07-31T02:53:33;100217.13;;;18.92;67.55
12868;BME280;33517;49.866;8.320;2023-07-31T02:56:25;100228.38;;;18.94;67.97
12868;BME280;33517;49.866;8.320;2023-07-31T02:59:17;100230.00;;;18.95;67.83
12868;BME280;33517;49.866;8.320;2023-07-31T03:02:09;100233.25;;;18.97;67.80
12868;BME280;33517;49.866;8.320;2023-07-31T03:05:01;100231.66;;;18.96;67.82
12868;BME280;33517;49.866;8.320;2023-07-31T03:07:53;100226.44;;;19.01;67.51
12868;BME280;33517;49.866;8.320;2023-07-31T03:10:46;100227.25;;;18.83;68.99
12868;BME280;33517;49.866;8.320;2023-07-31T03:13:38;100224.75;;;18.70;69.39
12868;BME280;33517;49.866;8.320;2023-07-31T03:16:30;100228.53;;;18.81;69.12
12868;BME280;33517;49.866;8.320;2023-07-31T03:19:22;100230.53;;;18.85;69.09
12868;BME280;33517;49.866;8.320;2023-07-31T03:22:13;100221.50;;;18.86;68.96
12868;BME280;33517;49.866;8.320;2023-07-31T03:25:06;100221.50;;;18.86;68.94
12868;BME280;33517;49.866;8.320;2023-07-31T03:28:01;100214.31;;;18.87;69.54
12868;BME280;33517;49.866;8.320;2023-07-31T03:30:53;100212.69;;;18.86;70.17
12868;BME280;33517;49.866;8.320;2023-07-31T03:33:45;100208.16;;;18.86;70.08
12868;BME280;33517;49.866;8.320;2023-07-31T03:36:36;100217.06;;;18.80;70.75
12868;BME280;33517;49.866;8.320;2023-07-31T03:39:28;100218.16;;;18.73;72.03
12868;BME280;33517;49.866;8.320;2023-07-31T03:42:20;100220.00;;;18.72;71.45
12868;BME280;33517;49.866;8.320;2023-07-31T03:45:13;100214.31;;;18.69;71.40
12868;BME280;33517;49.866;8.320;2023-07-31T03:48:05;100208.84;;;18.64;72.20
12868;BME280;33517;49.866;8.320;2023-07-31T03:50:58;100213.59;;;18.62;72.33
12868;BME280;33517;49.866;8.320;2023-07-31T03:53:50;100207.72;;;18.53;72.52
12868;BME280;33517;49.866;8.320;2023-07-31T03:56:41;100215.13;;;18.51;72.49
12868;BME280;33517;49.866;8.320;2023-07-31T03:59:33;100210.03;;;18.50;72.35
12868;BME280;33517;49.866;8.320;2023-07-31T04:02:26;100215.81;;;18.47;72.59
12868;BME280;33517;49.866;8.320;2023-07-31T04:05:18;100211.13;;;18.42;72.56
12868;BME280;33517;49.866;8.320;2023-07-31T04:08:10;100208.06;;;18.38;72.24
12868;BME280;33517;49.866;8.320;2023-07-31T04:11:02;100208.06;;;18.38;71.89
12868;BME280;33517;49.866;8.320;2023-07-31T04:13:54;100203.94;;;18.43;71.69
12868;BME280;33517;49.866;8.320;2023-07-31T04:16:46;100203.75;;;18.37;71.95
12868;BME280;33517;49.866;8.320;2023-07-31T04:19:39;100201.75;;;18.33;72.56
12868;BME280;33517;49.866;8.320;2023-07-31T04:22:31;100205.34;;;18.45;71.81
12868;BME280;33517;49.866;8.320;2023-07-31T04:25:23;100196.63;;;18.56;71.48
12868;BME280;33517;49.866;8.320;2023-07-31T04:28:14;100204.41;;;18.58;71.36
12868;BME280;33517;49.866;8.320;2023-07-31T04:31:06;100199.44;;;18.61;71.31
12868;BME280;33517;49.866;8.320;2023-07-31T04:33:59;100191.50;;;18.55;71.28
12868;BME280;33517;49.866;8.320;2023-07-31T04:36:52;100191.81;;;18.47;71.74
12868;BME280;33517;49.866;8.320;2023-07-31T04:39:44;100195.06;;;18.49;71.83
12868;BME280;33517;49.866;8.320;2023-07-31T04:42:36;100186.50;;;18.47;71.87
12868;BME280;33517;49.866;8.320;2023-07-31T04:45:27;100180.97;;;18.41;71.78
12868;BME280;33517;49.866;8.320;2023-07-31T04:48:19;100186.09;;;18.43;72.11
12868;BME280;33517;49.866;8.320;2023-07-31T04:51:11;100185.16;;;18.56;71.17
12868;BME280;33517;49.866;8.320;2023-07-31T04:54:04;100187.59;;;18.57;71.11
12868;BME280;33517;49.866;8.320;2023-07-31T04:56:56;100190.63;;;18.61;71.09
12868;BME280;33517;49.866;8.320;2023-07-31T04:59:48;100191.81;;;18.65;70.98
12868;BME280;33517;49.866;8.320;2023-07-31T05:02:40;100187.66;;;18.69;71.04
12868;BME280;33517;49.866;8.320;2023-07-31T05:05:32;100188.03;;;18.72;71.02
12868;BME280;33517;49.866;8.320;2023-07-31T05:08:24;100190.56;;;18.67;71.25
12868;BME280;33517;49.866;8.320;2023-07-31T05:11:17;100198.84;;;18.77;71.12
12868;BME280;33517;49.866;8.320;2023-07-31T05:14:09;100192.16;;;18.86;70.77
12868;BME280;33517;49.866;8.320;2023-07-31T05:17:00;100191.13;;;18.87;70.32
12868;BME280;33517;49.866;8.320;2023-07-31T05:19:52;100190.41;;;18.80;70.55
12868;BME280;33517;49.866;8.320;2023-07-31T05:22:44;100194.13;;;18.79;70.33
12868;BME280;33517;49.866;8.320;2023-07-31T05:25:36;100188.72;;;18.68;71.21
12868;BME280;33517;49.866;8.320;2023-07-31T05:28:29;100195.28;;;18.65;71.62
12868;BME280;33517;49.866;8.320;2023-07-31T05:31:21;100191.75;;;18.71;71.25
12868;BME280;33517;49.866;8.320;2023-07-31T05:34:14;100182.47;;;18.74;71.02
12868;BME280;33517;49.866;8.320;2023-07-31T05:37:06;100187.72;;;18.80;70.85
12868;BME280;33517;49.866;8.320;2023-07-31T05:39:58;100187.56;;;18.93;70.51
12868;BME280;33517;49.866;8.320;2023-07-31T05:42:50;100192.47;;;18.96;70.13
12868;BME280;33517;49.866;8.320;2023-07-31T05:45:43;100183.53;;;19.02;69.77
12868;BME280;33517;49.866;8.320;2023-07-31T05:48:35;100185.81;;;19.17;69.37
12868;BME280;33517;49.866;8.320;2023-07-31T05:51:27;100185.47;;;19.43;68.85
12868;BME280;33517;49.866;8.320;2023-07-31T05:54:19;100177.69;;;19.42;68.17
12868;BME280;33517;49.866;8.320;2023-07-31T05:57:11;100176.13;;;19.75;67.67
12868;BME280;33517;49.866;8.320;2023-07-31T06:00:03;100173.72;;;20.08;66.91
12868;BME280;33517;49.866;8.320;2023-07-31T06:02:56;100164.31;;;20.17;65.69
12868;BME280;33517;49.866;8.320;2023-07-31T06:05:48;100158.06;;;20.35;65.15
12868;BME280;33517;49.866;8.320;2023-07-31T06:08:40;100160.81;;;20.52;64.63
12868;BME280;33517;49.866;8.320;2023-07-31T06:11:32;100149.56;;;20.89;63.76
12868;BME280;33517;49.866;8.320;2023-07-31T06:14:24;100159.28;;;21.52;61.90
12868;BME280;33517;49.866;8.320;2023-07-31T06:17:16;100161.91;;;21.96;59.15
12868;BME280;33517;49.866;8.320;2023-07-31T06:20:10;100166.13;;;23.39;55.31
12868;BME280;33517;49.866;8.320;2023-07-31T06:23:02;100162.78;;;24.22;53.21
12868;BME280;33517;49.866;8.320;2023-07-31T06:25:54;100170.03;;;25.85;48.20
12868;BME280;33517;49.866;8.320;2023-07-31T06:28:46;100159.59;;;26.63;46.70
12868;BME280;33517;49.866;8.320;2023-07-31T06:31:38;100159.78;;;26.96;46.51
12868;BME280;33517;49.866;8.320;2023-07-31T06:34:30;100169.69;;;26.32;47.20
12868;BME280;33517;49.866;8.320;2023-07-31T06:37:23;100171.19;;;24.87;49.14
12868;BME280;33517;49.866;8.320;2023-07-31T06:40:15;100169.03;;;23.96;51.88
12868;BME280;33517;49.866;8.320;2023-07-31T06:43:07;100169.75;;;24.64;51.65
12868;BME280;33517;49.866;8.320;2023-07-31T06:46:04;100165.88;;;25.07;48.94
12868;BME280;33517;49.866;8.320;2023-07-31T06:48:56;100167.91;;;24.75;49.71
12868;BME280;33517;49.866;8.320;2023-07-31T06:51:48;100168.03;;;24.43;50.00
12868;BME280;33517;49.866;8.320;2023-07-31T06:54:42;100167.88;;;26.07;46.58
12868;BME280;33517;49.866;8.320;2023-07-31T06:57:34;100167.59;;;24.15;50.30
12868;BME280;33517;49.866;8.320;2023-07-31T07:00:25;100174.84;;;23.24;53.52
12868;BME280;33517;49.866;8.320;2023-07-31T07:03:18;100167.22;;;22.89;55.20
12868;BME280;33517;49.866;8.320;2023-07-31T07:06:10;100164.09;;;22.54;55.96
12868;BME280;33517;49.866;8.320;2023-07-31T07:09:02;100157.97;;;22.21;57.17
12868;BME280;33517;49.866;8.320;2023-07-31T07:11:56;100154.44;;;21.98;58.16
12868;BME280;33517;49.866;8.320;2023-07-31T07:14:48;100153.53;;;22.10;58.24
12868;BME280;33517;49.866;8.320;2023-07-31T07:17:40;100156.63;;;22.40;57.72
12868;BME280;33517;49.866;8.320;2023-07-31T07:20:32;100144.22;;;22.34;57.72
12868;BME280;33517;49.866;8.320;2023-07-31T07:23:24;100146.38;;;22.15;58.33
12868;BME280;33517;49.866;8.320;2023-07-31T07:26:17;100148.81;;;22.17;58.79
12868;BME280;33517;49.866;8.320;2023-07-31T07:29:10;100131.22;;;22.04;59.63
12868;BME280;33517;49.866;8.320;2023-07-31T07:32:02;100129.19;;;22.33;58.74
12868;BME280;33517;49.866;8.320;2023-07-31T07:34:55;100132.84;;;22.65;58.22
12868;BME280;33517;49.866;8.320;2023-07-31T07:37:48;100131.56;;;22.94;57.49
12868;BME280;33517;49.866;8.320;2023-07-31T07:40:40;100120.69;;;22.79;57.08
12868;BME280;33517;49.866;8.320;2023-07-31T07:43:32;100115.25;;;23.27;56.66
12868;BME280;33517;49.866;8.320;2023-07-31T07:46:25;100119.91;;;23.10;56.09
12868;BME280;33517;49.866;8.320;2023-07-31T07:49:17;100121.75;;;23.31;56.22
12868;BME280;33517;49.866;8.320;2023-07-31T07:52:09;100118.56;;;23.34;55.85
12868;BME280;33517;49.866;8.320;2023-07-31T07:55:01;100111.53;;;23.02;56.38
12868;BME280;33517;49.866;8.320;2023-07-31T07:57:54;100120.84;;;22.94;57.13
12868;BME280;33517;49.866;8.320;2023-07-31T08:00:48;100117.03;;;22.90;57.40
12868;BME280;33517;49.866;8.320;2023-07-31T08:03:42;100110.41;;;23.29;56.58
12868;BME280;33517;49.866;8.320;2023-07-31T08:06:34;100111.16;;;23.46;55.51
12868;BME280;33517;49.866;8.320;2023-07-31T08:09:26;100117.25;;;23.73;54.61
12868;BME280;33517;49.866;8.320;2023-07-31T08:12:18;100113.91;;;23.56;54.87
12868;BME280;33517;49.866;8.320;2023-07-31T08:15:10;100095.06;;;23.88;54.23
12868;BME280;33517;49.866;8.320;2023-07-31T08:18:02;100097.75;;;23.88;53.63
12868;BME280;33517;49.866;8.320;2023-07-31T08:20:55;100082.81;;;24.69;52.54
12868;BME280;33517;49.866;8.320;2023-07-31T08:23:47;100084.31;;;25.32;50.19
12868;BME280;33517;49.866;8.320;2023-07-31T08:26:39;100080.53;;;25.13;50.77
12868;BME280;33517;49.866;8.320;2023-07-31T08:29:31;100083.09;;;24.62;51.26
12868;BME280;33517;49.866;8.320;2023-07-31T08:32:23;100084.19;;;24.10;52.40
12868;BME280;33517;49.866;8.320;2023-07-31T08:35:15;100091.97;;;24.68;52.07
12868;BME280;33517;49.866;8.320;2023-07-31T08:38:08;100077.28;;;25.76;48.22
12868;BME280;33517;49.866;8.320;2023-07-31T08:41:00;100078.09;;;25.01;49.36
12868;BME280;33517;49.866;8.320;2023-07-31T08:43:55;100070.09;;;24.44;50.65
12868;BME280;33517;49.866;8.320;2023-07-31T08:46:48;100070.47;;;24.06;51.34
12868;BME280;33517;49.866;8.320;2023-07-31T08:49:42;100067.09;;;23.84;52.05
12868;BME280;33517;49.866;8.320;2023-07-31T08:52:35;100081.13;;;23.54;53.08
12868;BME280;33517;49.866;8.320;2023-07-31T08:55:28;100073.25;;;23.43;52.89
12868;BME280;33517;49.866;8.320;2023-07-31T08:58:20;100080.44;;;23.37;52.40
12868;BME280;33517;49.866;8.320;2023-07-31T09:01:13;100065.91;;;23.70;52.54
12868;BME280;33517;49.866;8.320;2023-07-31T09:04:07;100069.13;;;24.09;51.24
12868;BME280;33517;49.866;8.320;2023-07-31T09:07:02;100067.28;;;24.19;50.74
12868;BME280;33517;49.866;8.320;2023-07-31T09:09:55;100066.56;;;24.39;50.50
12868;BME280;33517;49.866;8.320;2023-07-31T09:12:48;100060.19;;;24.60;50.21
12868;BME280;33517;49.866;8.320;2023-07-31T09:15:43;100062.72;;;25.12;48.87
12868;BME280;33517;49.866;8.320;2023-07-31T09:18:52;100063.69;;;27.53;43.89
12868;BME280;33517;49.866;8.320;2023-07-31T09:21:47;100058.69;;;28.83;41.40
12868;BME280;33517;49.866;8.320;2023-07-31T09:24:39;100064.88;;;27.08;43.49
12868;BME280;33517;49.866;8.320;2023-07-31T09:27:45;100064.88;;;27.08;44.09
12868;BME280;33517;49.866;8.320;2023-07-31T09:30:47;100057.78;;;26.68;45.22
12868;BME280;33517;49.866;8.320;2023-07-31T09:33:54;100054.78;;;26.85;43.99
12868;BME280;33517;49.866;8.320;2023-07-31T09:36:48;100053.22;;;26.69;44.07
12868;BME280;33517;49.866;8.320;2023-07-31T09:39:47;100045.66;;;26.07;45.88
12868;BME280;33517;49.866;8.320;2023-07-31T09:42:39;100032.56;;;25.50;46.19
12868;BME280;33517;49.866;8.320;2023-07-31T09:45:34;100026.06;;;25.71;47.00
12868;BME280;33517;49.866;8.320;2023-07-31T09:48:28;100012.19;;;27.39;44.58
12868;BME280;33517;49.866;8.320;2023-07-31T09:51:26;100018.25;;;27.55;42.57
12868;BME280;33517;49.866;8.320;2023-07-31T09:54:17;100014.50;;;28.45;41.58
12868;BME280;33517;49.866;8.320;2023-07-31T09:57:11;100016.50;;;28.95;40.41
12868;BME280;33517;49.866;8.320;2023-07-31T10:00:03;100022.97;;;29.32;39.92
12868;BME280;33517;49.866;8.320;2023-07-31T10:02:58;100009.19;;;28.77;40.15
12868;BME280;33517;49.866;8.320;2023-07-31T10:05:53;99999.13;;;27.98;41.36
12868;BME280;33517;49.866;8.320;2023-07-31T10:08:47;99999.63;;;27.24;43.65
12868;BME280;33517;49.866;8.320;2023-07-31T10:11:47;99990.75;;;26.85;44.23
12868;BME280;33517;49.866;8.320;2023-07-31T10:14:42;99993.47;;;27.48;43.03
12868;BME280;33517;49.866;8.320;2023-07-31T10:17:34;100000.97;;;27.22;43.14
12868;BME280;33517;49.866;8.320;2023-07-31T10:20:28;99997.72;;;26.53;44.02
12868;BME280;33517;49.866;8.320;2023-07-31T10:23:22;99993.81;;;26.74;44.43
12868;BME280;33517;49.866;8.320;2023-07-31T10:26:17;99996.88;;;26.96;43.77
12868;BME280;33517;49.866;8.320;2023-07-31T10:29:11;100009.13;;;26.83;43.55
12868;BME280;33517;49.866;8.320;2023-07-31T10:32:05;100006.72;;;26.28;44.43
12868;BME280;33517;49.866;8.320;2023-07-31T10:34:59;100006.31;;;26.60;44.12
12868;BME280;33517;49.866;8.320;2023-07-31T10:37:52;100000.59;;;29.40;40.63
12868;BME280;33517;49.866;8.320;2023-07-31T10:40:46;100001.97;;;30.10;38.93
12868;BME280;33517;49.866;8.320;2023-07-31T10:43:38;100001.53;;;30.03;38.44
12868;BME280;33517;49.866;8.320;2023-07-31T10:46:29;99985.41;;;28.56;40.41
12868;BME280;33517;49.866;8.320;2023-07-31T10:49:21;99983.78;;;27.13;43.46
12868;BME280;33517;49.866;8.320;2023-07-31T10:52:13;99976.72;;;26.83;43.62
12868;BME280;33517;49.866;8.320;2023-07-31T10:55:30;99981.97;;;26.70;43.82
12868;BME280;33517;49.866;8.320;2023-07-31T10:58:24;99976.91;;;26.53;44.47
12868;BME280;33517;49.866;8.320;2023-07-31T11:01:16;99973.16;;;25.90;45.17
12868;BME280;33517;49.866;8.320;2023-07-31T11:04:10;99975.47;;;25.53;46.43
12868;BME280;33517;49.866;8.320;2023-07-31T11:07:03;99974.50;;;25.88;46.79
12868;BME280;33517;49.866;8.320;2023-07-31T11:09:59;99973.91;;;26.16;45.52
12868;BME280;33517;49.866;8.320;2023-07-31T11:12:50;99968.91;;;26.43;45.57
12868;BME280;33517;49.866;8.320;2023-07-31T11:15:44;99972.31;;;26.54;44.73
12868;BME280;33517;49.866;8.320;2023-07-31T11:18:38;99966.88;;;26.64;44.90
12868;BME280;33517;49.866;8.320;2023-07-31T11:21:31;99964.78;;;27.23;44.16
12868;BME280;33517;49.866;8.320;2023-07-31T11:24:23;99975.66;;;26.84;44.10
12868;BME280;33517;49.866;8.320;2023-07-31T11:27:15;99962.81;;;26.61;44.62
12868;BME280;33517;49.866;8.320;2023-07-31T11:30:08;99969.44;;;26.40;44.80
12868;BME280;33517;49.866;8.320;2023-07-31T11:33:03;99964.94;;;26.69;44.66
12868;BME280;33517;49.866;8.320;2023-07-31T11:35:55;99962.81;;;26.17;45.05
12868;BME280;33517;49.866;8.320;2023-07-31T11:38:47;99961.28;;;26.06;45.55
12868;BME280;33517;49.866;8.320;2023-07-31T11:41:40;99961.69;;;26.28;45.59
12868;BME280;33517;49.866;8.320;2023-07-31T11:44:38;99950.22;;;27.19;43.94
12868;BME280;33517;49.866;8.320;2023-07-31T11:47:32;99935.28;;;27.79;42.06
12868;BME280;33517;49.866;8.320;2023-07-31T11:50:26;99929.09;;;27.73;42.33
12868;BME280;33517;49.866;8.320;2023-07-31T11:53:25;99933.25;;;27.42;43.00
12868;BME280;33517;49.866;8.320;2023-07-31T11:56:20;99933.94;;;28.00;42.08
12868;BME280;33517;49.866;8.320;2023-07-31T11:59:12;99921.28;;;27.72;42.41
12868;BME280;33517;49.866;8.320;2023-07-31T12:02:05;99911.34;;;27.67;42.72
12868;BME280;33517;49.866;8.320;2023-07-31T12:04:57;99927.84;;;27.66;42.33
12868;BME280;33517;49.866;8.320;2023-07-31T12:07:51;99918.00;;;28.17;41.65
12868;BME280;33517;49.866;8.320;2023-07-31T12:10:43;99912.50;;;27.61;42.19
12868;BME280;33517;49.866;8.320;2023-07-31T12:13:36;99911.22;;;27.01;43.81
12868;BME280;33517;49.866;8.320;2023-07-31T12:16:28;99915.56;;;26.25;44.75
12868;BME280;33517;49.866;8.320;2023-07-31T12:19:20;99901.47;;;25.84;45.78
12868;BME280;33517;49.866;8.320;2023-07-31T12:22:12;99897.47;;;25.82;45.79
12868;BME280;33517;49.866;8.320;2023-07-31T12:25:06;99893.56;;;25.98;45.13
12868;BME280;33517;49.866;8.320;2023-07-31T12:28:03;99892.34;;;26.63;44.58
12868;BME280;33517;49.866;8.320;2023-07-31T12:30:57;99883.78;;;27.65;42.91
12868;BME280;33517;49.866;8.320;2023-07-31T12:33:50;99872.81;;;27.75;41.70
12868;BME280;33517;49.866;8.320;2023-07-31T12:36:42;99886.41;;;29.14;39.62
12868;BME280;33517;49.866;8.320;2023-07-31T12:39:34;99878.66;;;29.62;38.87
12868;BME280;33517;49.866;8.320;2023-07-31T12:42:28;99865.69;;;29.86;38.33
12868;BME280;33517;49.866;8.320;2023-07-31T12:45:19;99883.19;;;30.51;36.76
12868;BME280;33517;49.866;8.320;2023-07-31T12:48:13;99864.28;;;30.68;36.38
12868;BME280;33517;49.866;8.320;2023-07-31T12:51:05;99879.53;;;30.20;37.27
12868;BME280;33517;49.866;8.320;2023-07-31T12:53:58;99870.94;;;29.28;38.53
12868;BME280;33517;49.866;8.320;2023-07-31T12:56:50;99869.38;;;28.31;40.39
12868;BME280;33517;49.866;8.320;2023-07-31T12:59:43;99861.31;;;27.88;41.76
12868;BME280;33517;49.866;8.320;2023-07-31T13:02:35;99864.09;;;28.02;41.50
12868;BME280;33517;49.866;8.320;2023-07-31T13:05:27;99857.50;;;27.89;41.72
12868;BME280;33517;49.866;8.320;2023-07-31T13:08:19;99859.81;;;27.35;42.86
12868;BME280;33517;49.866;8.320;2023-07-31T13:11:11;99853.97;;;26.99;43.26
12868;BME280;33517;49.866;8.320;2023-07-31T13:14:03;99854.88;;;26.90;44.11
12868;BME280;33517;49.866;8.320;2023-07-31T13:16:56;99847.84;;;26.60;44.06
12868;BME280;33517;49.866;8.320;2023-07-31T13:19:48;99837.59;;;26.57;44.28
12868;BME280;33517;49.866;8.320;2023-07-31T13:22:40;99855.25;;;26.78;45.25
12868;BME280;33517;49.866;8.320;2023-07-31T13:25:32;99851.84;;;26.63;44.68
12868;BME280;33517;49.866;8.320;2023-07-31T13:28:24;99849.41;;;26.71;44.58
12868;BME280;33517;49.866;8.320;2023-07-31T13:31:16;99851.56;;;26.64;44.58
12868;BME280;33517;49.866;8.320;2023-07-31T13:34:09;99861.59;;;26.59;44.80
12868;BME280;33517;49.866;8.320;2023-07-31T13:37:01;99856.03;;;26.45;45.63
12868;BME280;33517;49.866;8.320;2023-07-31T13:39:53;99864.19;;;26.74;45.24
12868;BME280;33517;49.866;8.320;2023-07-31T13:42:46;99858.56;;;26.70;44.74
12868;BME280;33517;49.866;8.320;2023-07-31T13:45:39;99859.53;;;26.84;45.54
12868;BME280;33517;49.866;8.320;2023-07-31T13:48:34;99852.66;;;27.20;44.88
12868;BME280;33517;49.866;8.320;2023-07-31T13:51:28;99856.56;;;27.09;44.65
12868;BME280;33517;49.866;8.320;2023-07-31T13:54:20;99848.28;;;27.24;44.78
12868;BME280;33517;49.866;8.320;2023-07-31T13:57:12;99852.31;;;26.75;45.17
12868;BME280;33517;49.866;8.320;2023-07-31T14:00:05;99838.66;;;26.61;45.75
12868;BME280;33517;49.866;8.320;2023-07-31T14:02:57;99845.72;;;26.23;46.74
12868;BME280;33517;49.866;8.320;2023-07-31T14:05:48;99843.00;;;25.75;47.75
12868;BME280;33517;49.866;8.320;2023-07-31T14:08:42;99849.66;;;25.28;48.88
12868;BME280;33517;49.866;8.320;2023-07-31T14:11:34;99851.31;;;25.24;49.48
12868;BME280;33517;49.866;8.320;2023-07-31T14:14:26;99845.94;;;25.14;49.66
12868;BME280;33517;49.866;8.320;2023-07-31T14:17:18;99841.63;;;25.18;49.68
12868;BME280;33517;49.866;8.320;2023-07-31T14:20:11;99845.09;;;25.24;49.97
12868;BME280;33517;49.866;8.320;2023-07-31T14:23:03;99834.88;;;25.21;49.73
12868;BME280;33517;49.866;8.320;2023-07-31T14:25:56;99830.19;;;25.57;48.62
12868;BME280;33517;49.866;8.320;2023-07-31T14:28:48;99828.75;;;25.69;47.31
12868;BME280;33517;49.866;8.320;2023-07-31T14:31:40;99822.97;;;25.47;47.62
12868;BME280;33517;49.866;8.320;2023-07-31T14:34:32;99817.56;;;25.47;48.03
12868;BME280;33517;49.866;8.320;2023-07-31T14:37:26;99801.97;;;25.39;48.53
12868;BME280;33517;49.866;8.320;2023-07-31T14:40:18;99810.34;;;25.27;48.59
12868;BME280;33517;49.866;8.320;2023-07-31T14:43:11;99802.53;;;25.21;48.65
12868;BME280;33517;49.866;8.320;2023-07-31T14:46:03;99809.00;;;25.25;48.98
12868;BME280;33517;49.866;8.320;2023-07-31T14:48:55;99801.69;;;25.30;49.29
12868;BME280;33517;49.866;8.320;2023-07-31T14:51:47;99816.28;;;25.19;49.34
12868;BME280;33517;49.866;8.320;2023-07-31T14:54:39;99817.44;;;25.03;49.64
12868;BME280;33517;49.866;8.320;2023-07-31T14:57:31;99806.94;;;24.97;50.12
12868;BME280;33517;49.866;8.320;2023-07-31T15:00:24;99810.19;;;24.94;49.72
12868;BME280;33517;49.866;8.320;2023-07-31T15:03:17;99824.19;;;24.91;48.96
12868;BME280;33517;49.866;8.320;2023-07-31T15:06:09;99824.38;;;25.24;48.12